Time;durP1;ratioP1;P1;durP2;ratioP2;P2;SDS_P1;SDS_P2;PMS_P1;PMS_P2;Temp;Humidity;BMP_temperature;BMP_pressure;BME280_temperature;BME280_humidity;BME280_pressure;Samples;Min_cycle;Max_cycle;Signal;HPM_P1;HPM_P2
2021/08/25 00:02:03;;;;;;;2.65;1.17;;;10.90;99.90;;;;;;5075574;28;20476;-68
2021/08/25 00:04:28;;;;;;;3.88;1.27;;;10.90;99.90;;;;;;5075631;28;20040;-68
2021/08/25 00:06:54;;;;;;;1.40;0.90;;;10.80;99.90;;;;;;5075544;28;20633;-68
2021/08/25 00:09:20;;;;;;;3.33;1.45;;;10.80;99.90;;;;;;5075181;28;20101;-68
2021/08/25 00:11:46;;;;;;;3.38;1.50;;;10.80;99.90;;;;;;5075355;28;20026;-68
2021/08/25 00:14:12;;;;;;;4.35;1.38;;;10.70;99.90;;;;;;5075024;28;20063;-68
2021/08/25 00:16:38;;;;;;;3.38;1.50;;;10.70;99.90;;;;;;5075207;28;20031;-70
2021/08/25 00:19:04;;;;;;;3.40;1.30;;;10.70;99.90;;;;;;5075340;28;20036;-69
2021/08/25 00:21:29;;;;;;;6.80;1.83;;;10.70;99.90;;;;;;5074980;28;20416;-69
2021/08/25 00:23:55;;;;;;;5.85;1.50;;;10.60;99.90;;;;;;5075281;28;20033;-69
2021/08/25 00:26:21;;;;;;;3.92;1.50;;;10.60;99.90;;;;;;5074899;28;20059;-69
2021/08/25 00:28:47;;;;;;;3.92;1.35;;;10.60;99.90;;;;;;5074917;28;20031;-69
2021/08/25 00:31:14;;;;;;;5.65;1.30;;;10.50;99.90;;;;;;5074875;28;20035;-69
2021/08/25 00:33:40;;;;;;;2.47;1.30;;;10.50;99.90;;;;;;5075182;28;20081;-69
2021/08/25 00:36:06;;;;;;;3.90;1.20;;;10.50;99.90;;;;;;5074796;28;20496;-69
2021/08/25 00:38:32;;;;;;;3.40;1.65;;;10.50;99.90;;;;;;5075066;28;20056;-69
2021/08/25 00:40:58;;;;;;;5.20;1.83;;;10.40;99.90;;;;;;5074781;28;20526;-69
2021/08/25 00:43:24;;;;;;;4.22;1.55;;;10.40;99.90;;;;;;5074886;28;20047;-70
2021/08/25 00:45:50;;;;;;;3.97;2.00;;;10.40;99.90;;;;;;5074644;28;20036;-69
2021/08/25 00:48:17;;;;;;;1.88;1.13;;;10.40;99.90;;;;;;5074331;28;20383;-69
2021/08/25 00:50:47;;;;;;;5.18;1.60;;;10.40;99.90;;;;;;5074938;28;20074;-69
2021/08/25 00:53:13;;;;;;;3.65;1.55;;;10.40;99.90;;;;;;5074418;28;20185;-69
2021/08/25 00:55:39;;;;;;;3.85;1.50;;;10.40;99.90;;;;;;5074532;28;20056;-69
2021/08/25 00:58:06;;;;;;;5.40;1.75;;;10.30;99.90;;;;;;5074300;28;20057;-69
2021/08/25 01:00:37;;;;;;;4.70;1.75;;;10.40;99.90;;;;;;5074796;28;20021;-69
2021/08/25 01:03:19;;;;;;;2.95;2.08;;;10.30;99.90;;;;;;5074523;28;20086;-69
2021/08/25 01:05:47;;;;;;;5.95;1.75;;;10.30;99.90;;;;;;5074578;28;20040;-69
2021/08/25 01:08:15;;;;;;;4.40;2.03;;;10.30;99.90;;;;;;5074568;28;20025;-69
2021/08/25 01:10:41;;;;;;;4.50;2.17;;;10.30;99.90;;;;;;5074698;28;20029;-69
2021/08/25 01:13:09;;;;;;;6.10;1.70;;;10.30;99.90;;;;;;5074325;28;20021;-69
2021/08/25 01:15:41;;;;;;;4.82;1.83;;;10.30;99.90;;;;;;5074306;28;20499;-68
2021/08/25 01:47:14;;;;;;;5.93;2.67;;;10.20;99.90;;;;;;5073547;28;20036;-69
2021/08/25 01:49:40;;;;;;;12.93;2.85;;;10.20;99.90;;;;;;5073246;28;20119;-68
2021/08/25 01:52:06;;;;;;;6.90;2.53;;;10.20;99.90;;;;;;5073452;28;20028;-69
2021/08/25 01:54:32;;;;;;;7.35;2.33;;;10.10;99.90;;;;;;5073269;28;20053;-69
2021/08/25 01:56:58;;;;;;;7.00;2.45;;;10.10;99.90;;;;;;5073272;28;20021;-69
2021/08/25 01:59:24;;;;;;;6.40;2.40;;;10.10;99.90;;;;;;5072724;28;20488;-69
2021/08/25 02:01:50;;;;;;;9.00;2.70;;;10.10;99.90;;;;;;5073415;28;20020;-69
2021/08/25 02:04:15;;;;;;;5.78;2.30;;;10.10;99.90;;;;;;5072998;28;20029;-69
2021/08/25 02:06:41;;;;;;;5.70;2.58;;;10.10;99.90;;;;;;5072995;28;20380;-69
2021/08/25 02:09:07;;;;;;;7.10;2.50;;;10.10;99.90;;;;;;5073285;28;20166;-69
2021/08/25 02:11:33;;;;;;;5.50;2.60;;;10.10;99.90;;;;;;5073319;28;20028;-69
2021/08/25 02:13:59;;;;;;;8.80;3.05;;;10.10;99.90;;;;;;5072661;28;20032;-69
2021/08/25 02:16:24;;;;;;;6.28;2.58;;;10.00;99.90;;;;;;5073194;28;20029;-69
2021/08/25 02:18:50;;;;;;;5.82;2.25;;;10.10;99.90;;;;;;5072740;28;20035;-69
2021/08/25 02:21:16;;;;;;;4.90;2.35;;;10.10;99.90;;;;;;5072919;28;20032;-69
2021/08/25 02:23:42;;;;;;;5.50;2.80;;;10.00;99.90;;;;;;5072925;28;20120;-69
2021/08/25 02:26:16;;;;;;;5.50;2.55;;;10.00;99.90;;;;;;5072813;28;20554;-69
2021/08/25 02:28:45;;;;;;;12.35;3.10;;;10.00;99.90;;;;;;5072983;28;20032;-69
2021/08/25 02:31:11;;;;;;;9.30;2.70;;;10.00;99.90;;;;;;5073090;28;20031;-69
2021/08/25 02:33:37;;;;;;;4.93;2.20;;;10.00;99.90;;;;;;5072607;28;20024;-69
2021/08/25 02:36:03;;;;;;;6.68;2.40;;;10.00;99.90;;;;;;5072648;28;20055;-69
2021/08/25 02:38:29;;;;;;;6.90;2.90;;;10.00;99.90;;;;;;5072514;28;20056;-69
2021/08/25 02:40:55;;;;;;;7.53;2.55;;;10.00;99.90;;;;;;5072746;28;20047;-69
2021/08/25 02:43:20;;;;;;;5.30;2.70;;;10.00;99.90;;;;;;5072533;28;20029;-69
2021/08/25 02:45:46;;;;;;;10.05;2.90;;;10.00;99.90;;;;;;5072486;28;20044;-68
2021/08/25 02:48:12;;;;;;;4.38;2.47;;;10.00;99.90;;;;;;5072415;28;20027;-68
2021/08/25 02:50:37;;;;;;;5.75;2.60;;;10.00;99.90;;;;;;5072599;28;20058;-68
2021/08/25 02:53:03;;;;;;;9.35;2.45;;;10.00;99.90;;;;;;5071992;28;20504;-68
2021/08/25 02:55:29;;;;;;;5.15;2.13;;;10.00;99.90;;;;;;5072437;28;20028;-68
2021/08/25 02:57:55;;;;;;;5.85;2.72;;;10.00;99.90;;;;;;5072065;28;20036;-68
2021/08/25 03:00:21;;;;;;;5.78;2.40;;;10.00;99.90;;;;;;5072422;28;20040;-68
2021/08/25 03:02:46;;;;;;;3.70;2.38;;;10.00;99.90;;;;;;5072375;28;20024;-68
2021/08/25 03:05:12;;;;;;;6.78;2.63;;;10.00;99.90;;;;;;5071979;28;20028;-68
2021/08/25 03:07:38;;;;;;;6.18;2.67;;;10.00;99.90;;;;;;5072224;28;20154;-68
2021/08/25 03:10:04;;;;;;;5.07;2.50;;;10.00;99.90;;;;;;5071922;28;20031;-68
2021/08/25 03:12:30;;;;;;;7.00;2.92;;;10.00;99.90;;;;;;5071596;28;20100;-68
2021/08/25 03:14:55;;;;;;;6.15;2.83;;;10.00;99.90;;;;;;5071926;28;20174;-69
2021/08/25 03:17:21;;;;;;;5.50;3.42;;;10.00;99.90;;;;;;5072060;28;20039;-67
2021/08/25 03:19:47;;;;;;;5.28;2.67;;;10.00;99.90;;;;;;5072065;28;20035;-67
2021/08/25 03:22:12;;;;;;;4.30;2.10;;;10.00;99.90;;;;;;5072362;28;20029;-68
2021/08/25 03:24:38;;;;;;;4.18;2.42;;;10.00;99.90;;;;;;5071865;28;20074;-68
2021/08/25 03:27:04;;;;;;;5.30;2.13;;;10.00;99.90;;;;;;5071856;28;20387;-67
2021/08/25 03:29:29;;;;;;;6.65;3.10;;;10.00;99.90;;;;;;5072109;28;20031;-67
2021/08/25 03:31:55;;;;;;;8.43;2.80;;;9.90;99.90;;;;;;5071988;28;20029;-67
2021/08/25 03:34:21;;;;;;;4.80;3.20;;;9.90;99.90;;;;;;5071889;28;20115;-67
2021/08/25 03:36:47;;;;;;;7.10;2.65;;;9.90;99.90;;;;;;5072015;28;20116;-67
2021/08/25 03:39:12;;;;;;;6.28;2.55;;;10.00;99.90;;;;;;5071821;28;20472;-68
2021/08/25 03:41:38;;;;;;;7.07;2.50;;;10.00;99.90;;;;;;5072050;28;20079;-68
2021/08/25 03:44:04;;;;;;;6.53;2.80;;;10.00;99.90;;;;;;5071560;28;20032;-68
2021/08/25 03:46:30;;;;;;;7.63;2.72;;;10.00;99.90;;;;;;5071764;28;20032;-67
2021/08/25 03:48:55;;;;;;;7.32;2.95;;;9.90;99.90;;;;;;5071924;28;20032;-68
2021/08/25 03:51:21;;;;;;;5.60;2.95;;;9.90;99.90;;;;;;5070794;28;20063;-68
2021/08/25 03:53:47;;;;;;;5.07;2.67;;;9.90;99.90;;;;;;5071501;28;20492;-68
2021/08/25 03:56:13;;;;;;;7.57;3.63;;;10.00;99.90;;;;;;5070490;28;20555;-68
2021/08/25 03:58:40;;;;;;;5.00;3.00;;;9.90;99.90;;;;;;5071839;28;20063;-68
2021/08/25 04:01:06;;;;;;;6.60;2.60;;;9.90;99.90;;;;;;5071546;28;20032;-68
2021/08/25 04:03:31;;;;;;;9.18;3.58;;;9.90;99.90;;;;;;5071974;28;20016;-68
2021/08/25 04:05:57;;;;;;;7.45;3.20;;;9.90;99.90;;;;;;5071661;28;20033;-68
2021/08/25 04:08:23;;;;;;;9.77;3.42;;;9.90;99.90;;;;;;5071479;28;20491;-68
2021/08/25 04:10:49;;;;;;;8.63;2.78;;;9.90;99.90;;;;;;5071479;28;20112;-71
2021/08/25 04:13:14;;;;;;;6.47;3.05;;;9.90;99.90;;;;;;5071382;28;20496;-69
2021/08/25 04:15:40;;;;;;;5.65;2.58;;;9.90;99.90;;;;;;5071669;28;20046;-69
2021/08/25 04:18:07;;;;;;;9.05;2.40;;;10.00;99.90;;;;;;5071224;28;20391;-68
2021/08/25 04:20:32;;;;;;;4.80;2.33;;;10.00;99.90;;;;;;5071478;28;20105;-68
2021/08/25 04:22:58;;;;;;;5.90;2.60;;;10.00;99.90;;;;;;5073002;28;20116;-68
2021/08/25 04:25:24;;;;;;;5.28;2.53;;;10.00;99.90;;;;;;5065250;28;20087;-68
2021/08/25 04:27:49;;;;;;;4.70;2.47;;;10.00;99.90;;;;;;5055174;28;20021;-68
2021/08/25 04:30:15;;;;;;;7.13;2.90;;;9.90;99.90;;;;;;5063506;28;20126;-67
2021/08/25 04:32:41;;;;;;;4.25;2.55;;;10.00;99.90;;;;;;5064426;28;20017;-67
2021/08/25 04:35:07;;;;;;;4.28;2.50;;;10.00;99.90;;;;;;5063553;28;20087;-67
2021/08/25 04:37:33;;;;;;;6.25;2.70;;;10.00;99.90;;;;;;5064141;28;20484;-67
2021/08/25 04:39:59;;;;;;;4.13;2.33;;;10.00;99.90;;;;;;5065360;28;20040;-68
2021/08/25 04:42:25;;;;;;;6.03;2.85;;;10.00;99.90;;;;;;5063336;28;20021;-71
2021/08/25 04:44:50;;;;;;;4.55;2.35;;;10.00;99.90;;;;;;5064404;28;20024;-71
2021/08/25 04:47:16;;;;;;;5.07;2.00;;;10.00;99.90;;;;;;5064861;28;20664;-68
2021/08/25 04:49:42;;;;;;;7.72;2.50;;;10.00;99.90;;;;;;5063274;28;20013;-70
2021/08/25 04:52:08;;;;;;;6.82;2.47;;;10.00;99.90;;;;;;5064739;28;20028;-70
2021/08/25 04:54:33;;;;;;;4.75;2.47;;;10.00;99.90;;;;;;5064166;28;20048;-70
2021/08/25 04:56:59;;;;;;;4.20;2.35;;;10.00;99.90;;;;;;5055107;28;20111;-68
2021/08/25 04:59:25;;;;;;;5.13;2.15;;;10.00;99.90;;;;;;5054361;28;20044;-68
2021/08/25 05:01:51;;;;;;;4.18;2.00;;;10.00;99.90;;;;;;5054594;28;20055;-67
2021/08/25 05:04:16;;;;;;;5.28;2.30;;;10.00;99.90;;;;;;5054028;28;20033;-67
2021/08/25 05:06:42;;;;;;;7.85;2.50;;;10.00;99.90;;;;;;5054207;28;20026;-68
2021/08/25 05:09:08;;;;;;;2.75;1.98;;;9.90;99.90;;;;;;5054007;28;20025;-68
2021/08/25 05:11:33;;;;;;;5.68;2.67;;;10.00;99.90;;;;;;5054438;28;20029;-70
2021/08/25 05:13:59;;;;;;;5.53;2.08;;;10.00;99.90;;;;;;5054017;28;20021;-70
2021/08/25 05:16:25;;;;;;;5.68;2.88;;;10.00;99.90;;;;;;5054176;28;20439;-67
2021/08/25 05:18:50;;;;;;;3.45;2.08;;;10.00;99.90;;;;;;5054398;28;20021;-67
2021/08/25 05:21:16;;;;;;;5.40;2.15;;;10.00;99.90;;;;;;5053974;28;20541;-66
2021/08/25 05:23:42;;;;;;;5.75;2.63;;;10.00;99.90;;;;;;5054479;28;20106;-66
2021/08/25 05:26:07;;;;;;;4.93;2.80;;;10.00;99.90;;;;;;5053744;28;20040;-66
2021/08/25 05:28:34;;;;;;;4.57;2.42;;;10.00;99.90;;;;;;5054178;28;20036;-67
2021/08/25 05:31:00;;;;;;;8.13;2.47;;;10.10;99.90;;;;;;5053690;28;20029;-66
2021/08/25 05:33:26;;;;;;;5.00;2.35;;;10.00;99.90;;;;;;5053300;28;20024;-66
2021/08/25 05:35:52;;;;;;;5.47;2.08;;;10.00;99.90;;;;;;5053312;28;20025;-66
2021/08/25 05:38:18;;;;;;;5.03;2.45;;;10.00;99.90;;;;;;5053718;28;20028;-66
2021/08/25 05:40:43;;;;;;;6.95;2.20;;;10.00;99.90;;;;;;5054168;28;20101;-66
2021/08/25 05:43:09;;;;;;;4.53;2.00;;;10.10;99.90;;;;;;5068855;28;20434;-66
2021/08/25 05:45:35;;;;;;;3.63;2.22;;;10.10;99.90;;;;;;5073322;28;20089;-67
2021/08/25 05:48:00;;;;;;;4.95;2.28;;;10.10;99.90;;;;;;5072885;28;20025;-67
2021/08/25 05:50:26;;;;;;;4.93;2.50;;;10.10;99.90;;;;;;5072137;28;20028;-69
2021/08/25 05:52:53;;;;;;;5.88;1.83;;;10.20;99.90;;;;;;5071151;28;20128;-67
2021/08/25 05:55:19;;;;;;;3.47;1.88;;;10.20;99.90;;;;;;5073352;28;20021;-69
2021/08/25 05:57:47;;;;;;;7.25;2.20;;;10.20;99.90;;;;;;5072497;28;20090;-70
2021/08/25 06:00:15;;;;;;;7.13;2.22;;;10.20;99.90;;;;;;5073136;28;20088;-69
2021/08/25 06:02:44;;;;;;;5.60;2.17;;;10.20;99.90;;;;;;5071893;28;20070;-67
2021/08/25 06:05:13;;;;;;;4.15;2.13;;;10.20;99.90;;;;;;5072741;28;20043;-66
2021/08/25 06:07:40;;;;;;;3.40;1.83;;;10.20;99.90;;;;;;5073008;28;20510;-72
2021/08/25 06:10:07;;;;;;;3.35;2.13;;;10.30;99.90;;;;;;5073019;28;20044;-68
2021/08/25 06:12:33;;;;;;;8.88;3.00;;;10.30;99.90;;;;;;5073208;28;20428;-68
2021/08/25 06:14:59;;;;;;;8.70;2.60;;;10.30;99.90;;;;;;5072835;28;20078;-68
2021/08/25 06:17:25;;;;;;;4.78;2.10;;;10.30;99.90;;;;;;5073075;28;20029;-69
2021/08/25 06:19:51;;;;;;;4.45;1.63;;;10.30;99.90;;;;;;5072721;28;20480;-68
2021/08/25 06:22:17;;;;;;;4.05;1.80;;;10.30;99.90;;;;;;5072849;28;20024;-67
2021/08/25 06:24:43;;;;;;;3.25;1.90;;;10.30;99.90;;;;;;5072499;28;20476;-68
2021/08/25 06:27:09;;;;;;;4.78;2.05;;;10.40;99.90;;;;;;5066675;28;20040;-67
2021/08/25 06:29:34;;;;;;;3.38;1.80;;;10.40;99.90;;;;;;5062744;28;20141;-67
2021/08/25 06:32:00;;;;;;;5.88;1.50;;;10.40;99.90;;;;;;5061410;28;20032;-68
2021/08/25 06:34:26;;;;;;;3.30;1.90;;;10.40;99.90;;;;;;5060791;28;20020;-66
2021/08/25 06:36:52;;;;;;;2.92;1.55;;;10.40;99.90;;;;;;5061048;28;20392;-67
2021/08/25 06:39:17;;;;;;;2.13;1.48;;;10.40;99.90;;;;;;5062537;28;20025;-67
2021/08/25 06:41:43;;;;;;;3.70;1.50;;;10.40;99.90;;;;;;5062603;28;20071;-67
2021/08/25 06:44:09;;;;;;;3.55;1.40;;;10.40;99.90;;;;;;5063631;28;20068;-66
2021/08/25 06:46:35;;;;;;;3.88;1.70;;;10.40;99.90;;;;;;5072490;28;20040;-66
2021/08/25 06:49:00;;;;;;;2.70;1.60;;;10.40;99.90;;;;;;5072315;28;20438;-67
2021/08/25 06:51:26;;;;;;;3.08;1.52;;;10.40;99.90;;;;;;5062557;28;20121;-67
2021/08/25 06:53:52;;;;;;;2.67;1.35;;;10.40;99.90;;;;;;5064230;28;20052;-68
2021/08/25 06:56:17;;;;;;;3.58;1.40;;;10.40;99.90;;;;;;5056741;28;20028;-68
2021/08/25 06:58:43;;;;;;;2.85;1.40;;;10.40;99.90;;;;;;5061945;28;20014;-68
2021/08/25 07:01:09;;;;;;;3.85;1.50;;;10.40;99.90;;;;;;5053011;28;20074;-65
2021/08/25 07:03:36;;;;;;;1.88;1.27;;;10.40;99.90;;;;;;5051898;28;20029;-66
2021/08/25 07:06:02;;;;;;;3.30;1.30;;;10.40;99.90;;;;;;5051694;28;20041;-66
2021/08/25 07:08:27;;;;;;;2.10;1.60;;;10.40;99.90;;;;;;5052319;28;20020;-66
2021/08/25 07:10:53;;;;;;;2.60;1.60;;;10.40;99.90;;;;;;5051998;28;20472;-65
2021/08/25 07:13:19;;;;;;;3.33;1.33;;;10.40;99.90;;;;;;5052147;28;20375;-65
2021/08/25 07:15:45;;;;;;;4.40;1.65;;;10.40;99.90;;;;;;5051828;28;20028;-65
2021/08/25 07:18:11;;;;;;;1.77;1.30;;;10.50;99.90;;;;;;5052052;28;20363;-65
2021/08/25 07:20:36;;;;;;;2.97;1.50;;;10.50;99.90;;;;;;5052251;28;20401;-65
2021/08/25 07:23:02;;;;;;;3.97;1.73;;;10.50;99.90;;;;;;5051975;28;20025;-65
2021/08/25 07:25:28;;;;;;;4.22;2.03;;;10.50;99.90;;;;;;5051668;28;20032;-66
2021/08/25 07:27:54;;;;;;;6.88;2.30;;;10.50;99.90;;;;;;5051925;28;20029;-66
2021/08/25 07:30:19;;;;;;;2.88;1.30;;;10.50;99.90;;;;;;5052016;28;20423;-65
2021/08/25 07:32:45;;;;;;;8.48;2.20;;;10.60;99.90;;;;;;5052122;28;20051;-66
2021/08/25 07:35:12;;;;;;;5.43;1.58;;;10.60;99.90;;;;;;5051853;28;20479;-66
2021/08/25 07:37:38;;;;;;;4.32;1.60;;;10.60;99.90;;;;;;5051478;28;20035;-66
2021/08/25 07:40:07;;;;;;;8.70;2.63;;;10.60;99.90;;;;;;5051727;28;20032;-68
2021/08/25 07:42:32;;;;;;;5.85;1.67;;;10.60;99.90;;;;;;5051773;28;20043;-66
2021/08/25 07:44:58;;;;;;;2.45;1.63;;;10.60;99.90;;;;;;5051481;28;20033;-68
2021/08/25 07:47:24;;;;;;;6.93;1.67;;;10.60;99.90;;;;;;5061805;28;20021;-67
2021/08/25 07:49:50;;;;;;;8.73;2.35;;;10.60;99.90;;;;;;5059955;28;20032;-67
2021/08/25 07:52:16;;;;;;;7.47;2.45;;;10.60;99.90;;;;;;5060918;28;20021;-67
2021/08/25 07:54:42;;;;;;;3.85;2.10;;;10.60;99.90;;;;;;5059408;28;20051;-67
2021/08/25 07:57:07;;;;;;;5.07;2.10;;;10.60;99.90;;;;;;5061173;28;20400;-70
2021/08/25 07:59:33;;;;;;;5.10;1.77;;;10.60;99.90;;;;;;5057423;28;20047;-69
2021/08/25 08:01:59;;;;;;;4.72;2.05;;;10.60;99.90;;;;;;5055779;28;20025;-69
2021/08/25 08:04:26;;;;;;;6.63;2.30;;;10.60;99.90;;;;;;5061372;28;20404;-69
2021/08/25 08:06:52;;;;;;;5.63;2.22;;;10.50;99.90;;;;;;5075488;28;20024;-69
2021/08/25 08:09:18;;;;;;;3.17;1.67;;;10.50;99.90;;;;;;5075351;28;20033;-69
2021/08/25 08:11:44;;;;;;;6.43;2.47;;;10.50;99.90;;;;;;5075532;28;20020;-69
2021/08/25 08:14:10;;;;;;;5.20;2.20;;;10.50;99.90;;;;;;5075172;28;20021;-69
2021/08/25 08:16:35;;;;;;;8.93;2.50;;;10.50;99.90;;;;;;5075106;28;20024;-70
2021/08/25 08:19:17;;;;;;;6.15;2.58;;;10.50;99.90;;;;;;5073724;28;20029;-69
2021/08/25 08:21:43;;;;;;;7.03;2.28;;;10.50;99.90;;;;;;5075321;28;20071;-69
2021/08/25 08:24:09;;;;;;;6.97;2.58;;;10.60;99.90;;;;;;5074871;28;20480;-68
2021/08/25 08:26:35;;;;;;;5.20;2.00;;;10.50;99.90;;;;;;5075291;28;20075;-69
2021/08/25 08:29:01;;;;;;;8.25;2.00;;;10.60;99.90;;;;;;5074854;28;20024;-71
2021/08/25 08:31:28;;;;;;;6.07;2.20;;;10.60;99.90;;;;;;5074863;28;20078;-70
2021/08/25 08:33:54;;;;;;;5.20;2.20;;;10.50;99.90;;;;;;5074750;28;20027;-71
2021/08/25 08:36:19;;;;;;;8.05;2.40;;;10.50;99.90;;;;;;5074849;28;20541;-70
2021/08/25 08:38:45;;;;;;;5.50;2.08;;;10.50;99.90;;;;;;5074667;28;20032;-71
2021/08/25 08:41:11;;;;;;;8.35;2.30;;;10.50;99.90;;;;;;5074560;28;20051;-70
2021/08/25 08:43:48;;;;;;;10.50;2.10;;;10.50;99.90;;;;;;5065169;28;20056;-73
2021/08/25 08:46:16;;;;;;;5.65;1.75;;;10.50;99.90;;;;;;5062832;28;20040;-73
2021/08/25 08:48:42;;;;;;;4.97;2.13;;;10.50;99.90;;;;;;5064825;28;20020;-73
2021/08/25 08:51:14;;;;;;;6.22;1.63;;;10.50;99.90;;;;;;5062803;28;20025;-73
2021/08/25 08:53:40;;;;;;;5.43;2.00;;;10.50;99.90;;;;;;5062450;28;20071;-73
2021/08/25 08:56:07;;;;;;;6.22;2.00;;;10.50;99.90;;;;;;5062758;28;20075;-73
2021/08/25 08:58:33;;;;;;;4.85;1.90;;;10.50;99.90;;;;;;5064960;28;20159;-73
2021/08/25 09:00:59;;;;;;;4.03;1.92;;;10.50;99.90;;;;;;5063260;28;20099;-73
2021/08/25 09:03:26;;;;;;;2.80;1.80;;;10.40;99.90;;;;;;5059833;28;20017;-73
2021/08/25 09:06:00;;;;;;;4.40;2.30;;;10.40;99.90;;;;;;5064192;28;20032;-73
2021/08/25 09:08:28;;;;;;;3.97;2.42;;;10.40;99.90;;;;;;5061506;28;20369;-73
2021/08/25 09:11:09;;;;;;;7.47;2.30;;;10.50;99.90;;;;;;5061802;28;20021;-70
2021/08/25 09:13:36;;;;;;;6.25;2.13;;;10.50;99.90;;;;;;5054098;28;20028;-69
2021/08/25 09:16:02;;;;;;;6.13;2.50;;;10.50;99.90;;;;;;5053874;28;20025;-69
2021/08/25 09:18:28;;;;;;;6.15;2.33;;;10.50;99.90;;;;;;5054270;28;20070;-68
2021/08/25 09:20:54;;;;;;;4.05;2.00;;;10.50;99.90;;;;;;5057616;28;20020;-68
2021/08/25 09:23:24;;;;;;;4.78;2.42;;;10.50;99.90;;;;;;5073951;28;20024;-68
2021/08/25 09:25:55;;;;;;;4.10;1.98;;;10.50;99.90;;;;;;5074139;28;20045;-69
2021/08/25 09:28:32;;;;;;;6.10;2.20;;;10.50;99.90;;;;;;5056595;28;20393;-68
2021/08/25 09:31:05;;;;;;;3.80;1.50;;;10.50;99.90;;;;;;5053831;28;20091;-69
2021/08/25 09:33:45;;;;;;;3.63;1.52;;;10.50;99.90;;;;;;5070282;28;20083;-68
2021/08/25 09:36:16;;;;;;;6.68;2.00;;;10.40;99.90;;;;;;5073650;28;20029;-68
2021/08/25 09:38:54;;;;;;;2.95;1.90;;;10.40;99.90;;;;;;5073922;28;20029;-68
2021/08/25 09:41:20;;;;;;;3.22;1.45;;;10.40;99.90;;;;;;5073506;28;20024;-69
2021/08/25 09:43:48;;;;;;;2.08;1.40;;;10.40;99.90;;;;;;5073688;28;20047;-69
2021/08/25 09:46:25;;;;;;;5.68;1.80;;;10.40;99.90;;;;;;5073305;28;20082;-70
2021/08/25 09:48:54;;;;;;;2.47;1.75;;;10.40;99.90;;;;;;5073748;28;20039;-67
2021/08/25 09:51:40;;;;;;;3.97;1.58;;;10.40;99.90;;;;;;5073269;28;20027;-68
2021/08/25 09:54:15;;;;;;;5.18;1.65;;;10.40;99.90;;;;;;5072649;28;20045;-68
2021/08/25 09:56:42;;;;;;;4.30;1.67;;;10.40;99.90;;;;;;5062187;28;20020;-68
2021/08/25 09:59:10;;;;;;;6.00;1.73;;;10.40;99.90;;;;;;5062580;28;20025;-68
2021/08/25 10:01:37;;;;;;;3.85;1.58;;;10.40;99.90;;;;;;5062115;28;20107;-74
2021/08/25 10:04:08;;;;;;;2.38;1.27;;;10.40;99.90;;;;;;5062884;28;20025;-69
2021/08/25 10:06:40;;;;;;;5.30;1.13;;;10.40;99.90;;;;;;5061837;28;20484;-69
2021/08/25 10:09:07;;;;;;;3.53;1.20;;;10.40;99.90;;;;;;5060375;28;20032;-69
2021/08/25 10:11:36;;;;;;;2.13;1.10;;;10.40;99.90;;;;;;5063403;28;20096;-67
2021/08/25 10:14:16;;;;;;;3.80;1.27;;;10.50;99.90;;;;;;5063107;28;20024;-67
2021/08/25 10:16:47;;;;;;;3.78;1.30;;;10.50;99.90;;;;;;5062259;28;20494;-67
2021/08/25 10:19:39;;;;;;;3.30;1.02;;;10.50;99.90;;;;;;5069970;28;20391;-68
2021/08/25 10:22:14;;;;;;;4.88;1.55;;;10.40;99.90;;;;;;5072831;28;20024;-68
2021/08/25 10:24:59;;;;;;;2.97;1.30;;;10.50;99.90;;;;;;5073024;28;20033;-68
2021/08/25 10:27:29;;;;;;;2.33;1.02;;;10.50;99.90;;;;;;5072982;28;20021;-68
2021/08/25 10:30:02;;;;;;;4.78;1.55;;;10.50;99.90;;;;;;5072756;28;20036;-68
2021/08/25 10:32:38;;;;;;;6.53;1.30;;;10.50;99.90;;;;;;5063906;28;20480;-67
2021/08/25 10:35:30;;;;;;;9.05;1.48;;;10.50;99.90;;;;;;5060312;28;20043;-67
2021/08/25 10:38:14;;;;;;;5.68;1.30;;;10.50;99.90;;;;;;5062659;28;20045;-68
2021/08/25 10:40:40;;;;;;;2.85;1.42;;;10.50;99.90;;;;;;5063217;28;20020;-67
2021/08/25 10:43:05;;;;;;;4.07;1.10;;;10.50;99.90;;;;;;5062669;28;20362;-68
2021/08/25 10:45:46;;;;;;;5.22;1.88;;;10.50;99.90;;;;;;5060676;28;20485;-68
2021/08/25 10:48:12;;;;;;;;;;;10.50;99.90;;;;;;5061636;28;20021;-68
2021/08/25 10:50:55;;;;;;;3.63;1.60;;;10.50;99.90;;;;;;5062472;28;20355;-68
2021/08/25 10:53:32;;;;;;;5.53;1.20;;;10.50;99.90;;;;;;5061501;28;20106;-68
2021/08/25 10:56:11;;;;;;;9.10;1.70;;;10.50;99.90;;;;;;5059188;28;20024;-67
2021/08/25 10:59:10;;;;;;;6.20;1.83;;;10.60;99.90;;;;;;5061639;28;20400;-68
2021/08/25 11:01:44;;;;;;;3.90;1.25;;;10.60;99.90;;;;;;5063655;28;20404;-67
2021/08/25 11:04:15;;;;;;;3.85;1.23;;;10.60;99.90;;;;;;5060366;28;20496;-67
2021/08/25 11:06:52;;;;;;;4.00;1.02;;;10.60;99.90;;;;;;5060878;28;20483;-67
2021/08/25 11:09:30;;;;;;;3.47;0.95;;;10.60;99.90;;;;;;5061710;28;20431;-67
2021/08/25 11:12:14;;;;;;;4.63;1.15;;;10.60;99.90;;;;;;5061451;28;20037;-67
2021/08/25 11:14:45;;;;;;;1.95;1.10;;;10.60;99.90;;;;;;5062123;28;20415;-67
2021/08/25 11:17:12;;;;;;;2.22;0.90;;;10.60;99.90;;;;;;5060483;28;20021;-69
2021/08/25 11:19:50;;;;;;;4.93;1.40;;;10.60;99.90;;;;;;5058334;28;20124;-67
2021/08/25 11:22:22;;;;;;;5.22;1.33;;;10.50;99.90;;;;;;5069461;28;20035;-66
2021/08/25 11:24:57;;;;;;;7.10;1.40;;;10.60;99.90;;;;;;5072061;28;20037;-66
2021/08/25 11:27:32;;;;;;;3.65;0.85;;;10.60;99.90;;;;;;5071577;28;20020;-66
2021/08/25 11:30:09;;;;;;;3.88;1.25;;;10.60;99.90;;;;;;5071617;28;20499;-67
2021/08/25 11:32:56;;;;;;;5.57;1.13;;;10.60;99.90;;;;;;5066744;28;20029;-70
2021/08/25 11:35:23;;;;;;;4.40;1.30;;;10.60;99.90;;;;;;5051481;28;20037;-68
2021/08/25 11:37:49;;;;;;;3.92;1.10;;;10.60;99.90;;;;;;5050613;28;20467;-67
2021/08/25 11:40:15;;;;;;;3.97;1.40;;;10.70;99.90;;;;;;5050598;28;20029;-67
2021/08/25 11:42:41;;;;;;;5.25;1.10;;;10.80;99.90;;;;;;5051666;28;20021;-68
2021/08/25 11:45:32;;;;;;;3.70;1.10;;;10.80;99.90;;;;;;5051811;28;20082;-67
2021/08/25 11:47:59;;;;;;;7.88;1.40;;;10.80;99.90;;;;;;5051727;28;20064;-67
2021/08/25 11:50:27;;;;;;;4.63;1.40;;;10.70;99.90;;;;;;5051393;28;20411;-68
2021/08/25 11:52:54;;;;;;;4.20;1.10;;;10.70;99.90;;;;;;5051584;28;20127;-67
2021/08/25 11:55:20;;;;;;;3.53;1.33;;;10.70;99.90;;;;;;5050538;28;20032;-68
2021/08/25 11:57:48;;;;;;;4.47;1.20;;;10.70;99.90;;;;;;5051643;28;20571;-68
2021/08/25 12:00:40;;;;;;;5.13;1.40;;;10.60;99.90;;;;;;5051814;28;20033;-68
2021/08/25 12:03:08;;;;;;;3.70;1.08;;;10.60;99.90;;;;;;5051382;28;20041;-67
2021/08/25 12:05:38;;;;;;;3.95;0.90;;;10.60;99.90;;;;;;5051550;28;20033;-67
2021/08/25 12:08:12;;;;;;;3.40;1.08;;;10.60;99.90;;;;;;5051885;28;20028;-68
2021/08/25 12:10:47;;;;;;;4.22;0.77;;;10.60;99.90;;;;;;5051550;28;20114;-67
2021/08/25 12:13:29;;;;;;;1.55;0.60;;;10.60;99.90;;;;;;5051392;28;20063;-67
2021/08/25 12:15:56;;;;;;;2.33;1.10;;;10.60;99.90;;;;;;5051510;28;20030;-68
2021/08/25 12:18:23;;;;;;;5.25;0.75;;;10.60;99.90;;;;;;5051328;28;20029;-67
2021/08/25 12:20:54;;;;;;;3.72;1.20;;;10.60;99.90;;;;;;5051619;28;20382;-68
2021/08/25 12:23:23;;;;;;;3.92;1.00;;;10.60;99.90;;;;;;5051407;28;20028;-68
2021/08/25 12:25:52;;;;;;;3.63;1.33;;;10.60;99.90;;;;;;5051003;28;20037;-68
2021/08/25 12:28:34;;;;;;;7.70;1.30;;;10.60;99.90;;;;;;5051474;28;20079;-68
2021/08/25 12:31:19;;;;;;;4.15;1.25;;;10.60;99.90;;;;;;5051505;28;20100;-68
2021/08/25 12:34:02;;;;;;;2.28;0.88;;;10.70;99.90;;;;;;5051640;28;20025;-67
2021/08/25 12:36:30;;;;;;;5.20;1.27;;;10.70;99.90;;;;;;5051272;28;20392;-69
2021/08/25 12:39:04;;;;;;;5.50;1.52;;;10.80;99.90;;;;;;5051387;28;20036;-69
2021/08/25 12:41:30;;;;;;;5.72;2.03;;;10.90;99.90;;;;;;5050736;28;20025;-69
2021/08/25 12:43:56;;;;;;;5.22;1.35;;;10.80;99.90;;;;;;5051742;28;20357;-69
2021/08/25 12:46:22;;;;;;;5.03;1.40;;;10.80;99.90;;;;;;5053762;28;20041;-69
2021/08/25 12:48:48;;;;;;;1.73;1.00;;;11.20;99.90;;;;;;5054526;28;20025;-68
2021/08/25 12:51:18;;;;;;;6.82;1.35;;;11.10;99.90;;;;;;5057254;28;20031;-70
2021/08/25 12:53:47;;;;;;;;;;;11.00;99.90;;;;;;5076751;28;20040;-69
2021/08/25 12:56:13;;;;;;;1.40;1.00;;;10.80;99.90;;;;;;5074937;28;20106;-70
2021/08/25 12:58:38;;;;;;;6.68;1.27;;;10.80;99.90;;;;;;5074669;28;20107;-70
2021/08/25 13:01:04;;;;;;;3.30;1.20;;;10.80;99.90;;;;;;5074420;28;20499;-71
2021/08/25 13:03:30;;;;;;;4.47;1.27;;;10.80;99.90;;;;;;5074255;28;20021;-69
2021/08/25 13:05:55;;;;;;;3.35;1.13;;;10.70;99.90;;;;;;5073586;28;20102;-71
2021/08/25 13:08:21;;;;;;;1.77;1.08;;;10.70;99.90;;;;;;5074276;28;20100;-68
2021/08/25 13:10:47;;;;;;;9.07;1.75;;;10.80;99.90;;;;;;5074060;28;20036;-68
2021/08/25 13:13:13;;;;;;;1.88;0.85;;;10.70;99.90;;;;;;5073860;28;20021;-68
2021/08/25 13:15:38;;;;;;;3.33;1.23;;;10.70;99.90;;;;;;5074335;28;20048;-68
2021/08/25 13:18:04;;;;;;;4.18;1.40;;;10.70;99.90;;;;;;5074068;28;20468;-69
2021/08/25 13:20:30;;;;;;;5.03;1.42;;;10.70;99.90;;;;;;5073782;28;20036;-71
2021/08/25 13:22:56;;;;;;;3.15;1.20;;;10.70;99.90;;;;;;5073957;28;20104;-70